Kenner, LA

2:48 PM CDT on May 30, 2015 (GMT -0500)
New Orleans Naval Air Station | | Change Station
CLOSE
Current Station
Airport
Location: New Orleans NAS,
Elevation: 3 ft
Nearby Weather Stations

Elev 3 ft 29.83 °N, 90.04 °W | Updated 53 minutes ago

Partly Cloudy
Partly Cloudy
86 °F
Feels Like 90 °F
N
12
Wind Variable Wind from SE
Gusts 18 mph

Today
High -- | Low -- °F
--% Chance of Precip.
Yesterday
High -- | Low -- °F
Precip. -- in
6:00 AM 7:56 PM
Waxing Gibbous, 92% visible
Pressure 30.03 in
Visibility 10.0 miles
Clouds Few 2000 ft
Scattered Clouds 3500 ft
Mostly Cloudy 12000 ft
Heat Index 90 °F
Dew Point 69 °F
Humidity 57%
Rainfall 0.00 in
Snow Depth Not available.
UV 8 out of 12
Pollen 1.80 out of 12
Air Quality Not available.
Flu Activity Sporadic
METAR KNBG 301855Z 13010G16KT 10SM FEW020TCU SCT035 BKN120 30/21 A3003 RMK AO2 SLP168 TCU ALQDS T2 SET T03000206 $

More Conditions Fewer Conditions

Pressure 30.03 in
Visibility 10.0 miles
Clouds Few 2000 ft
Scattered Clouds 3500 ft
Mostly Cloudy 12000 ft
Heat Index 90 °F
Dew Point 69 °F
Humidity 57%
Rainfall 0.00 in
Snow Depth Not available.
UV 8 out of 12
Pollen 1.80 out of 12
Air Quality Not available.
Flu Activity Sporadic
METAR KNBG 301855Z 13010G16KT 10SM FEW020TCU SCT035 BKN120 30/21 A3003 RMK AO2 SLP168 TCU ALQDS T2 SET T03000206 $

More Conditions Fewer Conditions

10-Day Weather Forecast

Almanac

Astronomy

May. 30, 2015 Rise Set
Actual Time
Civil Twilight
Nautical Twilight
Astronomical Twilight
Moon
Length of Visible Light
Length of Day
Tomorrow will be .
, % of the Moon is Illuminated

Today's Extremes

State Highs State Lows

Community

WunderPhotos

Upload Photos

1,825,605 photos uploaded!

WunderBlogs® & News

Nearby

Air Quality

  Air Quality AQ Index Pollutant
Not available.

Snow Depth

Station Depth Elevation

Earthquake Activity

City Distance Mag. Time & Date
Minimum magnitude displayed is 2.5.

Coastal Water Temperatures

Place Temperature

Stations

Nearby Weather Stations

Station Location Temp. Windchill Dew Point Humidity Wind Precip. Elev Updated Type